Kezdőlap
METAR-TAF:

METAR-TAF

Repülőterek :

Nipawin, Saskatchewan, Kanada

földrajzi szélesség: 53-20N, földrajzi hosszúság: 104-00W, magasság: 372 m

Jelenlegi meteorológiai megfigyelések

A jelentés 45 perccel ezelõtt készült, 05:26 UTC
Északi szél 13 kt
Hőmérséklet 6°C
Páratartalom 100%
Légköri nyomás 1011 hPa
Látótávolság: 14.5 km
Szakadozott felhőzet 1100 lábon
Borult 2900 lábon

METAR: CYBU 220526Z AUTO 01013KT 9SM BKN011 OVC029 06/06 A2986 RMK SLP130

Idő: 00:11 (06:11 UTC)


TAF: hiányzik

Meteorológiai megfigyelések és előrejelzések több, mint 4000 repülőtéren (METAR és TAF jelentéseket).

A térképen piros és sárga pontok jelzik az elérhető meteorológiai állomásokat.

Mozgassa az egeret a pont fölött, hogy megjelenjen az állomás neve.

Azután kattintson az időjárási megfigyelések és előrejelzések megtekintéséhez.

A térkép megváltoztatása: kattintson a fekete keresztel jelölt zöld gombra ráközelítéshez, a vonallal jelölt zöld gombra távolításhoz, vagy a zöld nyilakra a szomszédos térképek eléréséhez.


METAR-TAF: